Time;durP1;ratioP1;P1;durP2;ratioP2;P2;SDS_P1;SDS_P2;PMS_P1;PMS_P2;Temp;Humidity;BMP_temperature;BMP_pressure;BME280_temperature;BME280_humidity;BME280_pressure;Samples;Min_cycle;Max_cycle;Signal;HPM_P1;HPM_P2
2021/08/11 00:00:25;;;;;;;1.80;1.70;;;24.50;47.60;;;;;;5031774;28;20258;-59
2021/08/11 00:02:51;;;;;;;2.10;1.90;;;24.50;47.60;;;;;;5030555;28;20293;-59
2021/08/11 00:05:17;;;;;;;1.77;1.67;;;24.50;47.60;;;;;;5031317;28;20677;-59
2021/08/11 00:07:44;;;;;;;1.80;1.70;;;24.50;47.60;;;;;;5030676;28;20249;-60
2021/08/11 00:10:10;;;;;;;2.35;1.92;;;24.60;47.70;;;;;;5031803;28;20253;-59
2021/08/11 00:12:37;;;;;;;2.28;2.08;;;24.60;47.70;;;;;;5032106;28;20714;-59
2021/08/11 00:15:03;;;;;;;1.92;1.83;;;24.50;47.60;;;;;;5028202;28;20237;-59
2021/08/11 00:17:30;;;;;;;2.00;1.70;;;24.50;47.60;;;;;;5030161;28;20294;-60
2021/08/11 00:19:56;;;;;;;1.92;1.83;;;24.50;47.60;;;;;;5029845;28;20268;-59
2021/08/11 00:22:23;;;;;;;2.10;1.90;;;24.50;47.60;;;;;;5032614;28;20632;-59
2021/08/11 00:24:49;;;;;;;2.25;2.05;;;24.50;47.60;;;;;;5030960;28;20249;-59
2021/08/11 00:27:16;;;;;;;2.30;1.90;;;24.60;47.70;;;;;;5031527;28;20290;-58
2021/08/11 00:29:42;;;;;;;1.92;1.60;;;24.50;47.60;;;;;;5031848;28;20306;-59
2021/08/11 00:32:09;;;;;;;2.00;1.80;;;24.50;47.60;;;;;;5031433;28;20238;-59
2021/08/11 00:34:35;;;;;;;2.00;1.80;;;24.50;47.60;;;;;;5031705;28;20270;-59
2021/08/11 00:37:02;;;;;;;1.70;1.60;;;24.50;47.60;;;;;;5030078;28;20256;-59
2021/08/11 00:39:28;;;;;;;1.80;1.70;;;24.50;47.70;;;;;;5031735;28;20310;-59
2021/08/11 00:41:54;;;;;;;2.00;1.80;;;24.50;47.60;;;;;;5030881;28;20689;-59
2021/08/11 00:44:21;;;;;;;2.63;2.05;;;24.50;47.60;;;;;;5031362;28;20241;-59
2021/08/11 00:46:50;;;;;;;2.00;1.80;;;24.50;47.60;;;;;;5029743;28;20233;-59
2021/08/11 00:49:16;;;;;;;2.42;2.22;;;24.50;47.60;;;;;;5030793;28;20202;-59
2021/08/11 00:51:43;;;;;;;1.90;1.80;;;24.60;47.80;;;;;;5030862;28;20591;-59
2021/08/11 00:54:09;;;;;;;2.20;1.80;;;24.50;47.70;;;;;;5031648;28;20274;-59
2021/08/11 00:56:36;;;;;;;1.73;1.63;;;24.50;47.70;;;;;;5029738;28;20203;-59
2021/08/11 00:59:02;;;;;;;2.28;2.08;;;24.50;47.70;;;;;;5031349;28;20662;-59
2021/08/11 01:01:29;;;;;;;2.63;1.90;;;24.50;47.70;;;;;;5030633;28;20249;-60
2021/08/11 01:03:55;;;;;;;2.15;1.95;;;24.50;47.70;;;;;;5031340;28;20249;-59
2021/08/11 01:06:22;;;;;;;2.78;1.90;;;24.50;47.70;;;;;;5029472;28;20245;-60
2021/08/11 01:08:48;;;;;;;2.00;1.80;;;24.50;47.70;;;;;;5031173;28;20248;-59
2021/08/11 01:11:15;;;;;;;1.80;1.70;;;24.50;47.70;;;;;;5030639;28;20257;-59
2021/08/11 01:13:41;;;;;;;1.80;1.70;;;24.50;47.70;;;;;;5031220;28;20357;-59
2021/08/11 01:16:08;;;;;;;1.70;1.60;;;24.50;47.70;;;;;;5029256;28;20305;-60
2021/08/11 01:18:34;;;;;;;2.00;1.90;;;24.50;47.70;;;;;;5030395;28;20230;-60
2021/08/11 01:21:01;;;;;;;1.98;1.88;;;24.50;47.60;;;;;;5028734;28;20267;-60
2021/08/11 01:23:28;;;;;;;3.28;1.75;;;24.50;47.60;;;;;;5031325;28;20580;-59
2021/08/11 01:25:55;;;;;;;2.17;1.98;;;24.50;47.70;;;;;;5028676;28;20289;-57
2021/08/11 01:28:21;;;;;;;2.17;1.67;;;24.50;47.80;;;;;;5030302;28;20206;-57
2021/08/11 01:30:48;;;;;;;2.75;2.08;;;24.50;47.80;;;;;;5030442;28;20268;-57
2021/08/11 01:33:14;;;;;;;2.40;1.80;;;24.50;47.80;;;;;;5030509;28;20706;-57
2021/08/11 01:35:42;;;;;;;3.05;1.75;;;24.50;47.80;;;;;;5029943;28;20230;-57
2021/08/11 01:38:09;;;;;;;1.63;1.52;;;24.50;47.90;;;;;;5030002;28;20203;-57
2021/08/11 01:40:35;;;;;;;1.85;1.70;;;24.50;47.90;;;;;;5030864;28;20254;-57
2021/08/11 01:43:02;;;;;;;2.35;1.92;;;24.50;47.90;;;;;;5029645;28;20601;-57
2021/08/11 01:45:29;;;;;;;1.70;1.60;;;24.50;48.00;;;;;;5029623;28;20256;-57
2021/08/11 01:47:56;;;;;;;2.17;1.88;;;24.50;48.10;;;;;;5029857;28;20214;-57
2021/08/11 01:50:23;;;;;;;3.28;2.17;;;24.50;48.00;;;;;;5029747;28;20276;-57
2021/08/11 01:52:49;;;;;;;1.90;1.70;;;24.50;48.00;;;;;;5028111;28;20194;-57
2021/08/11 01:55:16;;;;;;;2.20;2.00;;;24.50;48.10;;;;;;5029455;28;20238;-57
2021/08/11 01:57:42;;;;;;;2.38;1.90;;;24.50;48.00;;;;;;5028980;28;20703;-57
2021/08/11 02:00:09;;;;;;;2.22;1.73;;;24.50;48.10;;;;;;5029763;28;20371;-57
2021/08/11 02:02:35;;;;;;;1.80;1.70;;;24.50;48.10;;;;;;5030946;28;20293;-56
2021/08/11 02:05:02;;;;;;;1.85;1.73;;;24.50;47.90;;;;;;5030022;28;20683;-56
2021/08/11 02:07:28;;;;;;;1.83;1.73;;;24.50;47.90;;;;;;5028733;28;20250;-56
2021/08/11 02:09:55;;;;;;;2.20;2.00;;;24.50;48.10;;;;;;5030163;28;20761;-57
2021/08/11 02:12:21;;;;;;;2.22;2.03;;;24.50;48.10;;;;;;5029684;28;20241;-56
2021/08/11 02:14:48;;;;;;;2.17;1.98;;;24.50;48.10;;;;;;5029174;28;20268;-57
2021/08/11 02:17:14;;;;;;;2.03;1.90;;;24.50;48.10;;;;;;5025652;28;20679;-56
2021/08/11 02:19:41;;;;;;;3.25;2.10;;;24.50;48.10;;;;;;5028555;28;20218;-57
2021/08/11 02:22:07;;;;;;;1.73;1.63;;;24.50;48.10;;;;;;5029372;28;20289;-57
2021/08/11 02:24:34;;;;;;;1.92;1.73;;;24.50;48.10;;;;;;5029905;28;20606;-56
2021/08/11 02:27:00;;;;;;;2.58;1.98;;;24.50;48.10;;;;;;5029695;28;20230;-56
2021/08/11 02:29:27;;;;;;;2.10;1.90;;;24.50;48.10;;;;;;5025568;28;20290;-56
2021/08/11 02:31:53;;;;;;;2.30;2.10;;;24.50;48.10;;;;;;5029935;28;20675;-56
2021/08/11 02:34:19;;;;;;;1.90;1.80;;;24.50;48.10;;;;;;5030346;28;20313;-57
2021/08/11 02:36:46;;;;;;;2.05;1.83;;;24.50;48.10;;;;;;5030021;28;20246;-56
2021/08/11 02:39:12;;;;;;;2.28;1.98;;;24.50;48.10;;;;;;5033085;28;20237;-56
2021/08/11 02:41:39;;;;;;;2.00;1.65;;;24.50;48.10;;;;;;5033266;28;20310;-58
2021/08/11 02:44:05;;;;;;;2.13;1.80;;;24.50;48.10;;;;;;5033362;28;20242;-56
2021/08/11 02:46:33;;;;;;;2.00;1.90;;;24.50;48.10;;;;;;5033583;28;20238;-57
2021/08/11 02:48:59;;;;;;;2.08;1.90;;;24.50;48.10;;;;;;5029744;28;20873;-57
2021/08/11 02:51:26;;;;;;;2.08;1.83;;;24.50;48.10;;;;;;5033726;28;20218;-56
2021/08/11 02:53:52;;;;;;;1.70;1.60;;;24.50;48.10;;;;;;5032618;28;20260;-57
2021/08/11 02:56:19;;;;;;;1.75;1.60;;;24.50;48.10;;;;;;5033439;28;20238;-57
2021/08/11 02:58:45;;;;;;;2.15;1.95;;;24.40;48.00;;;;;;5031629;28;20294;-57
2021/08/11 03:01:12;;;;;;;2.00;1.77;;;24.50;48.10;;;;;;5033440;28;20319;-57
2021/08/11 03:03:38;;;;;;;2.85;1.70;;;24.50;48.10;;;;;;5033010;28;20234;-59
2021/08/11 03:06:05;;;;;;;2.00;1.90;;;24.50;48.10;;;;;;5033164;28;20238;-59
2021/08/11 03:08:31;;;;;;;2.00;1.80;;;24.50;48.10;;;;;;5032414;28;20308;-59
2021/08/11 03:10:58;;;;;;;1.98;1.88;;;24.50;48.10;;;;;;5031403;28;20304;-59
2021/08/11 03:13:25;;;;;;;1.83;1.73;;;24.50;48.10;;;;;;5033873;28;20347;-57
2021/08/11 03:15:52;;;;;;;2.10;1.80;;;24.50;48.10;;;;;;5032360;28;20206;-58
2021/08/11 03:18:18;;;;;;;2.20;1.75;;;24.40;48.00;;;;;;5031643;28;20261;-59
2021/08/11 03:20:45;;;;;;;1.85;1.75;;;24.50;48.10;;;;;;5031698;28;20257;-59
2021/08/11 03:23:13;;;;;;;2.17;2.00;;;24.50;48.10;;;;;;5033495;28;20251;-59
2021/08/11 03:25:39;;;;;;;2.00;1.80;;;24.50;48.10;;;;;;5032295;28;20653;-58
2021/08/11 03:28:06;;;;;;;2.20;2.00;;;24.50;48.10;;;;;;5033102;28;20230;-59
2021/08/11 03:30:33;;;;;;;2.72;2.17;;;24.50;48.10;;;;;;5032240;28;20245;-59
2021/08/11 03:33:00;;;;;;;1.70;1.60;;;24.40;48.00;;;;;;5033273;28;20203;-58
2021/08/11 03:35:26;;;;;;;1.67;1.58;;;24.40;48.00;;;;;;5031868;28;20313;-58
2021/08/11 03:37:53;;;;;;;1.77;1.63;;;24.40;48.00;;;;;;5032503;28;20614;-58
2021/08/11 03:40:21;;;;;;;2.13;1.85;;;24.50;48.10;;;;;;5032404;28;20222;-58
2021/08/11 03:42:47;;;;;;;1.92;1.83;;;24.50;48.10;;;;;;5033303;28;20198;-59
2021/08/11 03:45:14;;;;;;;1.80;1.70;;;24.40;48.10;;;;;;5032138;28;20237;-58
2021/08/11 03:47:40;;;;;;;2.53;1.80;;;24.50;48.10;;;;;;5031728;28;20292;-59
2021/08/11 03:50:06;;;;;;;3.33;2.00;;;24.50;48.10;;;;;;5031336;28;20317;-59
2021/08/11 03:52:33;;;;;;;2.75;1.50;;;24.50;48.10;;;;;;5032460;28;20234;-58
2021/08/11 03:54:59;;;;;;;3.30;1.65;;;24.50;48.10;;;;;;5031722;28;20238;-58
2021/08/11 03:57:26;;;;;;;1.83;1.73;;;24.50;48.10;;;;;;5031903;28;20298;-59
2021/08/11 03:59:52;;;;;;;1.92;1.80;;;24.50;48.10;;;;;;5031369;28;20249;-58
2021/08/11 04:02:19;;;;;;;1.95;1.77;;;24.50;48.10;;;;;;5032045;28;20573;-59
2021/08/11 04:04:45;;;;;;;1.92;1.48;;;24.40;48.00;;;;;;5032162;28;20268;-59
2021/08/11 04:07:12;;;;;;;2.78;1.67;;;24.40;48.70;;;;;;5032034;28;20257;-59
2021/08/11 04:09:38;;;;;;;2.50;2.00;;;24.40;48.00;;;;;;5030075;28;20671;-59
2021/08/11 04:12:05;;;;;;;2.22;2.03;;;24.40;48.00;;;;;;5032358;28;20285;-59
2021/08/11 04:14:31;;;;;;;2.35;1.60;;;24.40;48.00;;;;;;5031432;28;20257;-58
2021/08/11 04:16:58;;;;;;;2.60;1.95;;;24.50;48.10;;;;;;5030082;28;20666;-59
2021/08/11 04:19:24;;;;;;;1.75;1.65;;;24.40;48.00;;;;;;5029487;28;20250;-59
2021/08/11 04:21:51;;;;;;;1.80;1.70;;;24.50;48.10;;;;;;5030754;28;20202;-59
2021/08/11 04:24:17;;;;;;;1.63;1.52;;;24.50;48.10;;;;;;5031981;28;20600;-58
2021/08/11 04:26:44;;;;;;;1.75;1.65;;;24.50;48.10;;;;;;5031313;28;20234;-59
2021/08/11 04:29:10;;;;;;;2.28;1.70;;;24.40;48.10;;;;;;5031260;28;20250;-59
2021/08/11 04:31:37;;;;;;;3.00;1.80;;;24.50;48.10;;;;;;5031281;28;20583;-59
2021/08/11 04:34:03;;;;;;;2.00;1.63;;;24.50;48.10;;;;;;5031513;28;20301;-59
2021/08/11 04:36:30;;;;;;;1.73;1.63;;;24.50;48.10;;;;;;5031587;28;20252;-57
2021/08/11 04:38:56;;;;;;;1.90;1.70;;;24.50;48.10;;;;;;5030805;28;20206;-58
2021/08/11 04:41:22;;;;;;;2.08;1.90;;;24.50;48.10;;;;;;5030683;28;20234;-58
2021/08/11 04:43:49;;;;;;;2.10;1.90;;;24.50;48.10;;;;;;5030799;28;20237;-58
2021/08/11 04:46:15;;;;;;;2.10;1.90;;;24.50;48.10;;;;;;5031120;28;20700;-58
2021/08/11 04:48:42;;;;;;;2.35;2.03;;;24.50;48.10;;;;;;5030933;28;20226;-59
2021/08/11 04:51:08;;;;;;;1.73;1.63;;;24.50;48.10;;;;;;5030533;28;20245;-57
2021/08/11 04:53:35;;;;;;;1.67;1.58;;;24.50;48.10;;;;;;5030814;28;20659;-59
2021/08/11 04:56:01;;;;;;;2.00;1.90;;;24.50;48.10;;;;;;5030610;28;20266;-59
2021/08/11 04:58:28;;;;;;;1.80;1.70;;;24.50;48.10;;;;;;5031492;28;20285;-57
2021/08/11 05:00:54;;;;;;;2.25;1.60;;;24.50;48.10;;;;;;5029681;28;20264;-59
2021/08/11 05:03:21;;;;;;;2.58;1.67;;;24.50;48.10;;;;;;5031059;28;20260;-58
2021/08/11 05:05:47;;;;;;;1.85;1.75;;;24.50;48.10;;;;;;5031185;28;20241;-59
2021/08/11 05:08:14;;;;;;;1.63;1.52;;;24.50;48.10;;;;;;5030193;28;20245;-57
2021/08/11 05:10:40;;;;;;;2.10;1.90;;;24.50;48.10;;;;;;5030370;28;20268;-59
2021/08/11 05:13:07;;;;;;;2.00;1.73;;;24.50;48.10;;;;;;5030274;28;20253;-58
2021/08/11 05:15:33;;;;;;;1.70;1.60;;;24.50;48.10;;;;;;5030299;28;20269;-59
2021/08/11 05:17:59;;;;;;;2.97;1.60;;;24.50;48.10;;;;;;5030057;28;20234;-58
2021/08/11 05:20:26;;;;;;;1.90;1.70;;;24.50;48.10;;;;;;5030867;28;20333;-58
2021/08/11 05:22:52;;;;;;;2.33;1.70;;;24.50;48.10;;;;;;5028573;28;20293;-59
2021/08/11 05:25:19;;;;;;;2.65;1.60;;;24.50;48.10;;;;;;5030162;28;20211;-58
2021/08/11 05:27:45;;;;;;;2.38;1.90;;;24.50;48.10;;;;;;5029587;28;20240;-58
2021/08/11 05:30:12;;;;;;;2.75;2.00;;;24.50;48.10;;;;;;5030481;28;20222;-59
2021/08/11 05:32:38;;;;;;;1.73;1.63;;;24.50;48.10;;;;;;5029782;28;20241;-57
2021/08/11 05:35:05;;;;;;;1.73;1.63;;;24.50;48.10;;;;;;5030144;28;20325;-58
2021/08/11 05:37:31;;;;;;;2.20;1.98;;;24.50;48.10;;;;;;5029343;28;20252;-58
2021/08/11 05:39:58;;;;;;;1.80;1.70;;;24.50;48.10;;;;;;5030789;28;20222;-57
2021/08/11 05:42:24;;;;;;;2.00;1.80;;;24.50;48.10;;;;;;5027968;28;20199;-57
2021/08/11 05:44:51;;;;;;;1.98;1.77;;;24.50;48.10;;;;;;5031096;28;20261;-58
2021/08/11 05:47:17;;;;;;;2.08;1.60;;;24.50;48.10;;;;;;5029569;28;20636;-56
2021/08/11 05:49:44;;;;;;;3.53;1.83;;;24.50;48.10;;;;;;5030706;28;20253;-56
2021/08/11 05:52:10;;;;;;;3.00;1.52;;;24.50;48.10;;;;;;5029393;28;20234;-58
2021/08/11 05:54:37;;;;;;;2.78;1.80;;;24.50;48.20;;;;;;5029854;28;20269;-57
2021/08/11 05:57:03;;;;;;;1.70;1.52;;;24.50;48.30;;;;;;5028925;28;20234;-57
2021/08/11 05:59:30;;;;;;;3.22;1.90;;;24.50;48.10;;;;;;5029935;28;20284;-57
2021/08/11 06:01:56;;;;;;;1.90;1.80;;;24.50;48.10;;;;;;5030519;28;20245;-58
2021/08/11 06:04:24;;;;;;;2.00;1.60;;;24.50;48.40;;;;;;5029898;28;20233;-56
2021/08/11 06:06:50;;;;;;;2.85;2.08;;;24.50;48.50;;;;;;5022593;28;20222;-57
2021/08/11 06:09:17;;;;;;;4.93;1.77;;;24.50;48.60;;;;;;5028982;28;20222;-56
2021/08/11 06:11:44;;;;;;;1.75;1.50;;;24.50;48.50;;;;;;5030304;28;20289;-56
2021/08/11 06:14:10;;;;;;;2.53;2.17;;;24.50;48.60;;;;;;5033246;28;20207;-58
2021/08/11 06:16:37;;;;;;;3.38;1.85;;;24.50;48.60;;;;;;5033415;28;20240;-58
2021/08/11 06:19:03;;;;;;;2.28;1.65;;;24.50;48.70;;;;;;5031588;28;20225;-58
2021/08/11 06:21:30;;;;;;;4.18;1.83;;;24.50;48.70;;;;;;5034192;28;20206;-57
2021/08/11 06:23:56;;;;;;;2.35;1.50;;;24.50;48.70;;;;;;5033153;28;20651;-58
2021/08/11 06:26:23;;;;;;;1.98;1.77;;;24.50;48.80;;;;;;5032136;28;20238;-54
2021/08/11 06:28:49;;;;;;;1.88;1.77;;;24.50;48.90;;;;;;5033267;28;20600;-55
2021/08/11 06:31:18;;;;;;;2.95;2.17;;;24.50;48.80;;;;;;5033588;28;20249;-56
2021/08/11 06:33:44;;;;;;;2.08;1.67;;;24.50;49.10;;;;;;5028413;28;20276;-56
2021/08/11 06:36:10;;;;;;;3.58;1.85;;;24.50;49.10;;;;;;5032693;28;20265;-57
2021/08/11 06:38:37;;;;;;;3.95;2.63;;;24.50;49.10;;;;;;5033624;28;20633;-56
2021/08/11 06:41:03;;;;;;;1.63;1.50;;;24.50;48.90;;;;;;5032696;28;20348;-59
2021/08/11 06:43:30;;;;;;;3.22;1.80;;;24.50;48.80;;;;;;5033244;28;20286;-57
2021/08/11 06:45:56;;;;;;;2.17;1.67;;;24.50;49.10;;;;;;5031221;28;20202;-55
2021/08/11 06:48:23;;;;;;;3.83;2.15;;;24.50;49.10;;;;;;5033701;28;20234;-56
2021/08/11 06:50:49;;;;;;;3.97;2.00;;;24.50;49.00;;;;;;5033513;28;20624;-56
2021/08/11 06:53:16;;;;;;;2.03;1.70;;;24.50;49.10;;;;;;5033537;28;20245;-54
2021/08/11 06:55:42;;;;;;;2.90;1.83;;;24.50;49.10;;;;;;5031806;28;20262;-55
2021/08/11 06:58:09;;;;;;;2.28;1.65;;;24.50;49.10;;;;;;5028986;28;20411;-58
2021/08/11 07:00:35;;;;;;;2.33;1.85;;;24.60;49.10;;;;;;5033217;28;20250;-57
2021/08/11 07:03:02;;;;;;;2.63;1.60;;;24.60;49.20;;;;;;5033662;28;20646;-57
2021/08/11 07:05:28;;;;;;;2.47;1.70;;;24.60;49.20;;;;;;5032173;28;20230;-53
2021/08/11 07:07:55;;;;;;;2.45;1.95;;;24.50;49.10;;;;;;5013732;28;20210;-56
2021/08/11 07:10:21;;;;;;;3.42;1.70;;;24.50;49.10;;;;;;5022552;28;20696;-56
2021/08/11 07:12:48;;;;;;;2.15;1.70;;;24.60;49.10;;;;;;5034164;28;20245;-57
2021/08/11 07:15:15;;;;;;;1.88;1.70;;;24.60;49.10;;;;;;5032576;28;20226;-57
2021/08/11 07:17:41;;;;;;;2.25;2.00;;;24.60;48.90;;;;;;5033028;28;20221;-57
2021/08/11 07:20:10;;;;;;;1.70;1.60;;;24.60;49.20;;;;;;5032520;28;20230;-57
2021/08/11 07:22:37;;;;;;;5.72;1.80;;;24.60;49.10;;;;;;5032966;28;20203;-57
2021/08/11 07:25:03;;;;;;;2.60;2.05;;;24.60;49.00;;;;;;5030797;28;20230;-56
2021/08/11 07:27:30;;;;;;;2.83;1.50;;;24.60;48.80;;;;;;5032335;28;20686;-56
2021/08/11 07:29:56;;;;;;;1.90;1.70;;;24.60;48.90;;;;;;5031314;28;20246;-57
2021/08/11 07:32:22;;;;;;;2.33;2.05;;;24.60;48.90;;;;;;5033571;28;20260;-56
2021/08/11 07:34:49;;;;;;;1.92;1.65;;;24.60;48.80;;;;;;5031727;28;20261;-58
2021/08/11 07:37:16;;;;;;;4.25;1.75;;;24.60;48.80;;;;;;5024662;28;20238;-54
2021/08/11 07:39:42;;;;;;;4.15;1.90;;;24.60;49.40;;;;;;5028707;28;20222;-51
2021/08/11 07:42:09;;;;;;;2.30;1.85;;;24.60;49.20;;;;;;5030113;28;20322;-52
2021/08/11 07:44:35;;;;;;;2.42;2.08;;;24.70;49.30;;;;;;5030826;28;20199;-53
2021/08/11 07:47:02;;;;;;;2.70;1.65;;;24.70;49.20;;;;;;5045704;28;20289;-56
2021/08/11 07:49:28;;;;;;;3.92;1.50;;;24.70;48.90;;;;;;5032487;28;20464;-56
2021/08/11 07:51:55;;;;;;;2.97;1.90;;;24.70;49.20;;;;;;5032652;28;20667;-57
2021/08/11 07:54:21;;;;;;;2.08;1.88;;;24.70;48.80;;;;;;5029845;28;20230;-58
2021/08/11 07:56:48;;;;;;;4.05;2.35;;;24.70;49.40;;;;;;5032563;28;20262;-61
2021/08/11 07:59:14;;;;;;;4.75;2.00;;;24.60;47.50;;;;;;5046497;28;20296;-61
2021/08/11 08:01:41;;;;;;;3.28;2.20;;;24.70;46.10;;;;;;5032823;28;20241;-57
2021/08/11 08:04:07;;;;;;;4.82;2.50;;;24.70;46.30;;;;;;5031802;28;20234;-57
2021/08/11 08:06:35;;;;;;;3.00;2.20;;;24.70;44.30;;;;;;5046663;28;20197;-58
2021/08/11 08:09:01;;;;;;;2.22;1.95;;;24.70;43.60;;;;;;5061462;22;20705;-55
2021/08/11 08:11:28;;;;;;;3.80;2.30;;;24.60;41.80;;;;;;5049003;28;20225;-53
2021/08/11 08:13:54;;;;;;;2.83;2.05;;;24.60;43.40;;;;;;5051897;28;20230;-55
2021/08/11 08:16:21;;;;;;;2.38;2.17;;;24.60;42.40;;;;;;5066245;28;20701;-54
2021/08/11 08:18:47;;;;;;;2.28;2.08;;;24.70;42.00;;;;;;5059389;28;20274;-54
2021/08/11 08:21:14;;;;;;;2.42;2.22;;;24.70;41.80;;;;;;5069710;28;20205;-54
2021/08/11 08:23:41;;;;;;;2.38;2.17;;;24.70;41.40;;;;;;5062711;28;20233;-52
2021/08/11 08:26:07;;;;;;;2.35;2.15;;;24.70;41.30;;;;;;5051109;28;20202;-53
2021/08/11 08:28:34;;;;;;;2.50;2.20;;;24.70;42.30;;;;;;5050813;28;20218;-52
2021/08/11 08:31:00;;;;;;;2.55;2.35;;;24.80;41.90;;;;;;5050530;28;20248;-55
2021/08/11 08:33:27;;;;;;;3.25;2.03;;;24.70;41.40;;;;;;5037747;28;20237;-57
2021/08/11 08:35:53;;;;;;;3.50;2.30;;;24.70;41.30;;;;;;5049064;28;20269;-54
2021/08/11 08:38:20;;;;;;;3.00;2.00;;;24.80;42.40;;;;;;5044139;28;20250;-53
2021/08/11 08:40:47;;;;;;;2.05;1.85;;;24.80;43.10;;;;;;5049843;28;20218;-53
2021/08/11 08:43:13;;;;;;;2.80;2.13;;;24.70;43.60;;;;;;5048815;28;20205;-51
2021/08/11 08:45:42;;;;;;;3.05;2.30;;;24.70;44.10;;;;;;5038225;28;20205;-55
2021/08/11 08:48:09;;;;;;;2.88;2.00;;;24.70;44.60;;;;;;5049890;28;20300;-54
2021/08/11 08:50:35;;;;;;;3.40;2.50;;;24.70;44.70;;;;;;5048577;28;20205;-50
2021/08/11 08:53:02;;;;;;;3.30;2.33;;;24.70;44.90;;;;;;5050798;28;20635;-51
2021/08/11 08:55:28;;;;;;;3.00;1.90;;;24.70;45.00;;;;;;5048945;28;20647;-54
2021/08/11 08:57:55;;;;;;;2.20;2.00;;;24.70;45.20;;;;;;5052430;28;20649;-52
2021/08/11 09:00:22;;;;;;;2.33;2.13;;;24.70;45.30;;;;;;5050627;28;20229;-53
2021/08/11 09:02:48;;;;;;;2.03;1.83;;;24.70;45.40;;;;;;5045733;28;20308;-56
2021/08/11 09:05:15;;;;;;;2.35;2.15;;;24.70;45.50;;;;;;5047015;28;20214;-53
2021/08/11 09:07:41;;;;;;;3.03;2.00;;;24.70;45.50;;;;;;5049138;28;20605;-53
2021/08/11 09:10:08;;;;;;;2.03;1.83;;;24.80;45.30;;;;;;5048891;28;20194;-52
2021/08/11 09:12:35;;;;;;;3.13;2.08;;;24.80;45.30;;;;;;5047266;28;20544;-54
2021/08/11 09:15:01;;;;;;;2.83;2.15;;;24.70;45.50;;;;;;5046949;28;20326;-52
2021/08/11 09:17:28;;;;;;;4.00;2.10;;;24.80;45.60;;;;;;5048065;28;20228;-52
2021/08/11 09:19:54;;;;;;;4.35;1.98;;;24.80;45.90;;;;;;5049992;28;20248;-53
2021/08/11 09:22:21;;;;;;;2.72;2.10;;;24.70;45.80;;;;;;5051093;28;20263;-53
2021/08/11 09:24:47;;;;;;;4.05;2.13;;;24.70;45.90;;;;;;5050724;28;20597;-54
2021/08/11 09:27:14;;;;;;;3.38;2.20;;;24.70;46.00;;;;;;5050389;28;20289;-52
2021/08/11 09:29:40;;;;;;;3.78;2.10;;;24.70;46.00;;;;;;5050832;28;20245;-53
2021/08/11 09:32:07;;;;;;;2.67;2.20;;;24.70;46.10;;;;;;5050554;28;20233;-53
2021/08/11 09:34:34;;;;;;;3.25;2.00;;;24.70;46.20;;;;;;5050890;28;20228;-54
2021/08/11 09:37:00;;;;;;;6.57;2.05;;;24.70;46.20;;;;;;5049477;28;20261;-50
2021/08/11 09:39:27;;;;;;;2.47;1.98;;;24.70;46.30;;;;;;5049828;28;20771;-54
2021/08/11 09:41:53;;;;;;;2.95;2.47;;;24.70;46.30;;;;;;5050741;28;20221;-49
2021/08/11 09:44:20;;;;;;;5.15;2.20;;;24.70;46.30;;;;;;5050792;28;20230;-53
2021/08/11 09:46:46;;;;;;;2.05;1.85;;;24.70;46.40;;;;;;5050357;28;20261;-52
2021/08/11 09:49:13;;;;;;;2.28;1.70;;;24.70;46.40;;;;;;5054373;28;20311;-53
2021/08/11 09:51:39;;;;;;;3.25;1.83;;;24.70;46.50;;;;;;5054618;28;20289;-53
2021/08/11 09:54:06;;;;;;;2.15;1.80;;;24.70;46.50;;;;;;5054776;28;20201;-52
2021/08/11 09:56:33;;;;;;;2.20;1.77;;;24.70;46.50;;;;;;5054071;28;20253;-51
2021/08/11 09:59:00;;;;;;;4.57;2.00;;;24.70;46.50;;;;;;5054106;28;20237;-48
2021/08/11 10:01:26;;;;;;;2.58;2.38;;;24.70;46.50;;;;;;5054947;28;20229;-53
2021/08/11 10:03:53;;;;;;;2.35;2.00;;;24.70;46.50;;;;;;5054857;28;20205;-50
2021/08/11 10:06:20;;;;;;;2.67;1.90;;;24.70;46.50;;;;;;5054247;28;20244;-53
2021/08/11 10:08:46;;;;;;;2.58;1.92;;;24.70;46.60;;;;;;5053189;28;20265;-54
2021/08/11 10:11:13;;;;;;;2.22;2.00;;;24.70;46.60;;;;;;5054337;28;20205;-52
2021/08/11 10:13:39;;;;;;;1.98;1.80;;;24.70;46.60;;;;;;5054024;28;20634;-52
2021/08/11 10:16:06;;;;;;;2.10;1.90;;;24.70;46.60;;;;;;5053862;28;20233;-53
2021/08/11 10:18:32;;;;;;;2.92;2.17;;;24.70;46.60;;;;;;5054025;28;20733;-52
2021/08/11 10:20:59;;;;;;;1.83;1.73;;;24.70;46.60;;;;;;5053958;28;20206;-52
2021/08/11 10:23:25;;;;;;;3.33;1.65;;;24.70;46.60;;;;;;5054152;28;20201;-52
2021/08/11 10:25:52;;;;;;;2.60;2.03;;;24.70;46.60;;;;;;5053774;28;20650;-50
2021/08/11 10:28:18;;;;;;;2.00;1.80;;;24.70;46.60;;;;;;5054055;28;20301;-50
2021/08/11 10:30:45;;;;;;;2.92;1.90;;;24.70;46.70;;;;;;5053850;28;20248;-52
2021/08/11 10:33:11;;;;;;;6.78;2.78;;;24.70;46.70;;;;;;5052841;28;20233;-51
2021/08/11 10:35:38;;;;;;;2.25;1.92;;;24.70;46.70;;;;;;5052674;28;20268;-50
2021/08/11 10:38:05;;;;;;;2.08;1.85;;;24.70;46.70;;;;;;5054169;28;20592;-54
2021/08/11 10:40:31;;;;;;;2.13;1.80;;;24.70;46.70;;;;;;5053542;28;20251;-50
2021/08/11 10:42:58;;;;;;;2.03;1.83;;;24.70;46.80;;;;;;5053436;28;20198;-48
2021/08/11 10:45:24;;;;;;;2.17;1.92;;;24.70;46.80;;;;;;5053856;28;20255;-51
2021/08/11 10:47:51;;;;;;;2.35;2.10;;;24.70;46.70;;;;;;5053666;28;20245;-49
2021/08/11 10:50:17;;;;;;;1.73;1.63;;;24.70;46.70;;;;;;5053782;28;20233;-49
2021/08/11 10:52:44;;;;;;;1.90;1.63;;;24.70;46.70;;;;;;5053672;28;20260;-53
2021/08/11 10:55:10;;;;;;;2.28;1.92;;;24.70;46.70;;;;;;5053292;28;20217;-50
2021/08/11 10:57:37;;;;;;;2.08;1.60;;;24.70;46.70;;;;;;5052880;28;20290;-52
2021/08/11 11:00:04;;;;;;;2.22;1.92;;;24.70;46.80;;;;;;5053493;28;20209;-56
2021/08/11 11:02:30;;;;;;;2.20;1.63;;;24.70;46.80;;;;;;5053711;28;20276;-51
2021/08/11 11:04:57;;;;;;;3.17;1.90;;;24.70;46.80;;;;;;5052993;28;20229;-50
2021/08/11 11:07:23;;;;;;;2.30;1.52;;;24.70;46.80;;;;;;5050151;28;20268;-52
2021/08/11 11:09:50;;;;;;;2.60;1.70;;;24.70;46.80;;;;;;5051181;28;20234;-55
2021/08/11 11:12:16;;;;;;;5.95;2.00;;;24.80;47.00;;;;;;5052037;28;20657;-51
2021/08/11 11:14:43;;;;;;;2.05;1.85;;;24.80;47.10;;;;;;5049451;28;20255;-50
2021/08/11 11:17:09;;;;;;;4.28;1.95;;;24.80;47.10;;;;;;5051924;28;20248;-50
2021/08/11 11:19:36;;;;;;;2.70;2.28;;;24.80;47.10;;;;;;5048211;28;20267;-53
2021/08/11 11:22:02;;;;;;;4.30;2.13;;;24.80;47.10;;;;;;5051364;28;20252;-54
2021/08/11 11:24:29;;;;;;;3.70;2.20;;;24.80;47.10;;;;;;5049585;28;20302;-54
2021/08/11 11:26:55;;;;;;;2.53;2.30;;;24.80;47.10;;;;;;5050855;28;20205;-52
2021/08/11 11:29:22;;;;;;;3.80;3.08;;;24.80;47.10;;;;;;5056546;28;20209;-52
2021/08/11 11:31:48;;;;;;;2.90;2.45;;;24.80;47.00;;;;;;5052100;28;20233;-51
2021/08/11 11:34:15;;;;;;;3.63;2.70;;;24.80;47.00;;;;;;5050628;28;20274;-53
2021/08/11 11:36:41;;;;;;;2.60;2.40;;;24.80;46.90;;;;;;5051020;28;20389;-53
2021/08/11 11:39:08;;;;;;;3.72;2.78;;;24.80;46.80;;;;;;5051195;28;20198;-52
2021/08/11 11:41:34;;;;;;;2.95;2.75;;;24.80;46.70;;;;;;5050264;28;20202;-54
2021/08/11 11:44:01;;;;;;;3.22;2.83;;;24.80;46.70;;;;;;5051274;28;20204;-53
2021/08/11 11:46:28;;;;;;;3.67;2.70;;;24.80;46.50;;;;;;5052092;28;20221;-53
2021/08/11 11:48:54;;;;;;;3.40;2.83;;;24.80;46.60;;;;;;5051855;28;20260;-54
2021/08/11 11:51:21;;;;;;;7.47;3.45;;;24.80;46.60;;;;;;5049641;28;20240;-53
2021/08/11 11:53:47;;;;;;;4.15;3.05;;;24.80;46.60;;;;;;5050057;28;20256;-51
2021/08/11 11:56:14;;;;;;;5.65;3.20;;;24.90;46.80;;;;;;5051695;28;20265;-52
2021/08/11 11:58:40;;;;;;;7.57;4.00;;;24.80;46.80;;;;;;5050875;28;20253;-49
2021/08/11 12:01:07;;;;;;;3.83;3.40;;;24.80;47.00;;;;;;5051212;28;20275;-55
2021/08/11 12:03:33;;;;;;;6.13;3.42;;;24.90;47.20;;;;;;5050654;28;20206;-52
2021/08/11 12:06:00;;;;;;;7.57;3.55;;;24.80;47.30;;;;;;5050779;28;20213;-55
2021/08/11 12:08:26;;;;;;;4.63;3.67;;;24.90;47.50;;;;;;5049736;28;20257;-56
2021/08/11 12:10:53;;;;;;;4.13;3.75;;;24.90;47.90;;;;;;5049614;28;20209;-55
2021/08/11 12:13:19;;;;;;;5.85;4.05;;;24.80;47.80;;;;;;5050287;28;20686;-53
2021/08/11 12:15:46;;;;;;;6.72;3.60;;;24.80;48.40;;;;;;5051362;28;20201;-49
2021/08/11 12:18:12;;;;;;;8.07;3.97;;;24.90;48.50;;;;;;5053565;28;20300;-52
2021/08/11 12:20:39;;;;;;;7.32;3.97;;;24.90;48.50;;;;;;5051441;28;20244;-53
2021/08/11 12:23:05;;;;;;;4.60;3.65;;;24.90;48.40;;;;;;5048389;28;20277;-55
2021/08/11 12:25:31;;;;;;;6.65;4.18;;;24.90;48.20;;;;;;5047217;28;20225;-51
2021/08/11 12:27:58;;;;;;;4.15;3.50;;;24.90;48.10;;;;;;5051543;28;20276;-55
2021/08/11 12:30:24;;;;;;;4.13;3.70;;;24.90;48.10;;;;;;5047093;28;20281;-54
2021/08/11 12:32:51;;;;;;;4.82;3.72;;;24.90;48.50;;;;;;5046014;28;20304;-54
2021/08/11 12:35:17;;;;;;;4.57;3.63;;;24.90;48.10;;;;;;5051234;28;20623;-52
2021/08/11 12:37:44;;;;;;;3.97;3.60;;;24.80;48.10;;;;;;5048184;28;20267;-54
2021/08/11 12:40:10;;;;;;;4.15;3.75;;;24.80;47.80;;;;;;5050329;28;20229;-53
2021/08/11 12:42:37;;;;;;;4.88;3.50;;;24.80;47.80;;;;;;5049463;28;20744;-53